Armadores I — SY8463 — position and weather

sailwx.info

Track history (hours):
 
Tides and Currents Weather Stations Pressure Air Temp Water Temp Dewpoint Dewpoint Depression Visibility Wind Speed Wind Dir Waves Ship Positions

Armadores I

Last reported at 2014-Dec-21 23:33 UTC. Time now 2014-Dec-21 23:54 UTC.
Position N 37°58' E 023°24'.

Length 32 m; draft 5.3 m.

Type: Tug. MMSI: 240694000.

Date/timePositionNaut miles runAvg speedWind from/ knotsBaromVisibWave heightAir tempDewpointWater temp
2014-Dec-21 23:33N 37°58' E 023°24'0 0.0
2014-Dec-21 22:33N 37°58' E 023°24'0 0.0
2014-Dec-21 21:33N 37°58' E 023°24'0 0.0
2014-Dec-21 20:33N 37°58' E 023°24'0 0.0
2014-Dec-21 19:33N 37°58' E 023°24'0 0.0
2014-Dec-21 18:34N 37°58' E 023°24'0 0.0
2014-Dec-21 17:33N 37°58' E 023°24'0 0.0
2014-Dec-21 16:33N 37°58' E 023°24'0 0.0
2014-Dec-21 15:33N 37°58' E 023°24'0 0.0
2014-Dec-21 14:33N 37°58' E 023°24'0 0.0
2014-Dec-21 13:33N 37°58' E 023°24'0 0.0
2014-Dec-21 12:33N 37°58' E 023°24'0 0.0
2014-Dec-21 11:33N 37°58' E 023°24'0 0.0
2014-Dec-21 10:33N 37°58' E 023°24'0 0.0
2014-Dec-21 09:33N 37°58' E 023°24'0 0.0
2014-Dec-21 08:33N 37°58' E 023°24'1 0.6
2014-Dec-21 07:33N 37°58' E 023°24'0 0.3
2014-Dec-21 06:33N 37°57' E 023°24'5 4.7
2014-Dec-21 05:33N 37°53' E 023°25'9 8.5
2014-Dec-21 04:34N 37°56' E 023°35'2 0.1
2014-Dec-20 11:29N 37°57' E 023°37'1 0.8
2014-Dec-20 10:34N 37°57' E 023°36'1 0.7
2014-Dec-20 09:33N 37°57' E 023°37'0 0.0
2014-Dec-20 08:33N 37°57' E 023°37'0 0.0
2014-Dec-20 07:33N 37°57' E 023°37'0 0.0
2014-Dec-20 06:33N 37°57' E 023°37'1 0.8
2014-Dec-20 05:34N 37°57' E 023°36'0 0.3
2014-Dec-20 04:33N 37°57' E 023°35'1 0.1
2014-Dec-19 15:14N 37°57' E 023°37'0 0.0
2014-Dec-19 14:33N 37°57' E 023°37'0 0.0
2014-Dec-19 13:33N 37°57' E 023°37'0 0.1
2014-Dec-19 12:33N 37°57' E 023°37'0 0.0
2014-Dec-19 11:33N 37°57' E 023°37'0 0.0
2014-Dec-19 10:33N 37°57' E 023°37'0 0.0
2014-Dec-19 09:33N 37°57' E 023°37'0 0.0
2014-Dec-19 08:33N 37°57' E 023°37'0 0.0
2014-Dec-19 07:33N 37°57' E 023°37'0 0.0
2014-Dec-19 06:33N 37°57' E 023°37'1 1.1
2014-Dec-19 05:34N 37°57' E 023°35'0 0.2
2014-Dec-19 04:34N 37°57' E 023°35'1 0.1
2014-Dec-18 12:12N 37°57' E 023°37'2 3.5
2014-Dec-18 11:33N 37°58' E 023°34'0 0.0
2014-Dec-18 10:33N 37°58' E 023°34'0 0.0
2014-Dec-18 09:33N 37°58' E 023°34'2 2.2
2014-Dec-18 08:33N 37°57' E 023°37'4 3.9
2014-Dec-18 07:33N 38°01' E 023°35'2 1.7
2014-Dec-18 06:33N 38°00' E 023°34'2 2.1
2014-Dec-18 05:33N 37°58' E 023°33'3 3.1
2014-Dec-18 04:33N 37°57' E 023°37'1 0.1
2014-Dec-17 17:34N 37°57' E 023°35'1 1.1
2014-Dec-17 16:33N 37°57' E 023°37'0 0.0
2014-Dec-17 15:33N 37°57' E 023°37'1 0.8
2014-Dec-17 14:33N 37°57' E 023°36'1 0.6
2014-Dec-17 13:20N 37°57' E 023°37'0 0.0
2014-Dec-17 12:25N 37°57' E 023°37'0 0.0
2014-Dec-17 11:33N 37°57' E 023°37'0 0.0
2014-Dec-17 10:24N 37°57' E 023°37'0 0.0
2014-Dec-17 09:33N 37°57' E 023°37'0 0.0
2014-Dec-17 08:29N 37°57' E 023°37'0 0.0
2014-Dec-17 07:12N 37°57' E 023°37'0 0.0
2014-Dec-17 06:30N 37°57' E 023°37'0 0.0
2014-Dec-17 05:30N 37°57' E 023°37'0 0.0
2014-Dec-17 04:25N 37°57' E 023°37'0 0.0
2014-Dec-15 11:33N 37°57' E 023°37'0 0.0
2014-Dec-15 10:33N 37°57' E 023°37'0 0.0
2014-Dec-15 09:33N 37°57' E 023°37'0 0.0
2014-Dec-15 08:33N 37°57' E 023°37'1 1.3
2014-Dec-15 07:33N 37°57' E 023°35'0 0.5
2014-Dec-15 06:33N 37°57' E 023°35'1 1.0
2014-Dec-15 05:33N 37°56' E 023°36'1 1.2
2014-Dec-15 04:34N 37°57' E 023°37'0 0.0
2014-Dec-13 22:33N 37°57' E 023°36'1 0.8
2014-Dec-13 21:34N 37°57' E 023°35'0 0.4
2014-Dec-13 20:33N 37°57' E 023°35'1 1.2
2014-Dec-13 19:33N 37°57' E 023°37'0 0.0
2014-Dec-13 18:33N 37°57' E 023°37'0 0.0
2014-Dec-13 17:33N 37°57' E 023°37'0 0.0
2014-Dec-13 16:34N 37°57' E 023°37'0 0.0
2014-Dec-13 15:33N 37°57' E 023°37'0 0.0
2014-Dec-13 14:33N 37°57' E 023°37'0 0.0
2014-Dec-13 13:34N 37°57' E 023°37'0 0.0
2014-Dec-13 12:33N 37°57' E 023°37'0 0.0
2014-Dec-13 11:33N 37°57' E 023°37'1 0.9
2014-Dec-13 10:33N 37°57' E 023°36'1 0.9
2014-Dec-13 09:33N 37°57' E 023°37'0 0.0
2014-Dec-13 08:33N 37°57' E 023°37'0 0.0
2014-Dec-13 07:33N 37°57' E 023°37'0 0.0
2014-Dec-13 06:33N 37°57' E 023°37'1 1.1
2014-Dec-13 05:33N 37°57' E 023°35'1 1.1
2014-Dec-13 04:33N 37°57' E 023°37'0 0.0
2014-Dec-12 10:33N 37°57' E 023°37'0 0.0
2014-Dec-12 09:33N 37°57' E 023°37'0 0.0
2014-Dec-12 08:33N 37°57' E 023°37'0 0.0
2014-Dec-12 07:33N 37°57' E 023°37'0 0.2
2014-Dec-12 06:33N 37°58' E 023°36'0 0.4
2014-Dec-12 05:33N 37°57' E 023°36'0 0.5
2014-Dec-12 04:33N 37°57' E 023°37'  
Track history (hours):
 
Tides and Currents Weather Stations Pressure Air Temp Water Temp Dewpoint Dewpoint Depression Visibility Wind Speed Wind Dir Waves Ship Positions

Armadores I

Last reported at 2014-Dec-21 23:33 UTC. Time now 2014-Dec-21 23:54 UTC.
Position N 37°58' E 023°24'.

Length 32 m; draft 5.3 m.

Type: Tug. MMSI: 240694000.

Date/timePositionNaut miles runAvg speedWind from/ knotsBaromVisibWave heightAir tempDewpointWater temp
2014-Dec-21 23:33N 37°58' E 023°24'0 0.0
2014-Dec-21 22:33N 37°58' E 023°24'0 0.0
2014-Dec-21 21:33N 37°58' E 023°24'0 0.0
2014-Dec-21 20:33N 37°58' E 023°24'0 0.0
2014-Dec-21 19:33N 37°58' E 023°24'0 0.0
2014-Dec-21 18:34N 37°58' E 023°24'0 0.0
2014-Dec-21 17:33N 37°58' E 023°24'0 0.0
2014-Dec-21 16:33N 37°58' E 023°24'0 0.0
2014-Dec-21 15:33N 37°58' E 023°24'0 0.0
2014-Dec-21 14:33N 37°58' E 023°24'0 0.0
2014-Dec-21 13:33N 37°58' E 023°24'0 0.0
2014-Dec-21 12:33N 37°58' E 023°24'0 0.0
2014-Dec-21 11:33N 37°58' E 023°24'0 0.0
2014-Dec-21 10:33N 37°58' E 023°24'0 0.0
2014-Dec-21 09:33N 37°58' E 023°24'0 0.0
2014-Dec-21 08:33N 37°58' E 023°24'1 0.6
2014-Dec-21 07:33N 37°58' E 023°24'0 0.3
2014-Dec-21 06:33N 37°57' E 023°24'5 4.7
2014-Dec-21 05:33N 37°53' E 023°25'9 8.5
2014-Dec-21 04:34N 37°56' E 023°35'2 0.1
2014-Dec-20 11:29N 37°57' E 023°37'1 0.8
2014-Dec-20 10:34N 37°57' E 023°36'1 0.7
2014-Dec-20 09:33N 37°57' E 023°37'0 0.0
2014-Dec-20 08:33N 37°57' E 023°37'0 0.0
2014-Dec-20 07:33N 37°57' E 023°37'0 0.0
2014-Dec-20 06:33N 37°57' E 023°37'1 0.8
2014-Dec-20 05:34N 37°57' E 023°36'0 0.3
2014-Dec-20 04:33N 37°57' E 023°35'1 0.1
2014-Dec-19 15:14N 37°57' E 023°37'0 0.0
2014-Dec-19 14:33N 37°57' E 023°37'0 0.0
2014-Dec-19 13:33N 37°57' E 023°37'0 0.1
2014-Dec-19 12:33N 37°57' E 023°37'0 0.0
2014-Dec-19 11:33N 37°57' E 023°37'0 0.0
2014-Dec-19 10:33N 37°57' E 023°37'0 0.0
2014-Dec-19 09:33N 37°57' E 023°37'0 0.0
2014-Dec-19 08:33N 37°57' E 023°37'0 0.0
2014-Dec-19 07:33N 37°57' E 023°37'0 0.0
2014-Dec-19 06:33N 37°57' E 023°37'1 1.1
2014-Dec-19 05:34N 37°57' E 023°35'0 0.2
2014-Dec-19 04:34N 37°57' E 023°35'1 0.1
2014-Dec-18 12:12N 37°57' E 023°37'2 3.5
2014-Dec-18 11:33N 37°58' E 023°34'0 0.0
2014-Dec-18 10:33N 37°58' E 023°34'0 0.0
2014-Dec-18 09:33N 37°58' E 023°34'2 2.2
2014-Dec-18 08:33N 37°57' E 023°37'4 3.9
2014-Dec-18 07:33N 38°01' E 023°35'2 1.7
2014-Dec-18 06:33N 38°00' E 023°34'2 2.1
2014-Dec-18 05:33N 37°58' E 023°33'3 3.1
2014-Dec-18 04:33N 37°57' E 023°37'1 0.1
2014-Dec-17 17:34N 37°57' E 023°35'1 1.1
2014-Dec-17 16:33N 37°57' E 023°37'0 0.0
2014-Dec-17 15:33N 37°57' E 023°37'1 0.8
2014-Dec-17 14:33N 37°57' E 023°36'1 0.6
2014-Dec-17 13:20N 37°57' E 023°37'0 0.0
2014-Dec-17 12:25N 37°57' E 023°37'0 0.0
2014-Dec-17 11:33N 37°57' E 023°37'0 0.0
2014-Dec-17 10:24N 37°57' E 023°37'0 0.0
2014-Dec-17 09:33N 37°57' E 023°37'0 0.0
2014-Dec-17 08:29N 37°57' E 023°37'0 0.0
2014-Dec-17 07:12N 37°57' E 023°37'0 0.0
2014-Dec-17 06:30N 37°57' E 023°37'0 0.0
2014-Dec-17 05:30N 37°57' E 023°37'0 0.0
2014-Dec-17 04:25N 37°57' E 023°37'0 0.0
2014-Dec-15 11:33N 37°57' E 023°37'0 0.0
2014-Dec-15 10:33N 37°57' E 023°37'0 0.0
2014-Dec-15 09:33N 37°57' E 023°37'0 0.0
2014-Dec-15 08:33N 37°57' E 023°37'1 1.3
2014-Dec-15 07:33N 37°57' E 023°35'0 0.5
2014-Dec-15 06:33N 37°57' E 023°35'1 1.0
2014-Dec-15 05:33N 37°56' E 023°36'1 1.2
2014-Dec-15 04:34N 37°57' E 023°37'0 0.0
2014-Dec-13 22:33N 37°57' E 023°36'1 0.8
2014-Dec-13 21:34N 37°57' E 023°35'0 0.4
2014-Dec-13 20:33N 37°57' E 023°35'1 1.2
2014-Dec-13 19:33N 37°57' E 023°37'0 0.0
2014-Dec-13 18:33N 37°57' E 023°37'0 0.0
2014-Dec-13 17:33N 37°57' E 023°37'0 0.0
2014-Dec-13 16:34N 37°57' E 023°37'0 0.0
2014-Dec-13 15:33N 37°57' E 023°37'0 0.0
2014-Dec-13 14:33N 37°57' E 023°37'0 0.0
2014-Dec-13 13:34N 37°57' E 023°37'0 0.0
2014-Dec-13 12:33N 37°57' E 023°37'0 0.0
2014-Dec-13 11:33N 37°57' E 023°37'1 0.9
2014-Dec-13 10:33N 37°57' E 023°36'1 0.9
2014-Dec-13 09:33N 37°57' E 023°37'0 0.0
2014-Dec-13 08:33N 37°57' E 023°37'0 0.0
2014-Dec-13 07:33N 37°57' E 023°37'0 0.0
2014-Dec-13 06:33N 37°57' E 023°37'1 1.1
2014-Dec-13 05:33N 37°57' E 023°35'1 1.1
2014-Dec-13 04:33N 37°57' E 023°37'0 0.0
2014-Dec-12 10:33N 37°57' E 023°37'0 0.0
2014-Dec-12 09:33N 37°57' E 023°37'0 0.0
2014-Dec-12 08:33N 37°57' E 023°37'0 0.0
2014-Dec-12 07:33N 37°57' E 023°37'0 0.2
2014-Dec-12 06:33N 37°58' E 023°36'0 0.4
2014-Dec-12 05:33N 37°57' E 023°36'0 0.5
2014-Dec-12 04:33N 37°57' E 023°37'  

Dump ship's entire track history